createdAt,value
2018-09-17T00:01:05.661Z,4.06
2018-09-17T00:02:11.386Z,4.06
2018-09-17T00:03:18.098Z,4.06
2018-09-17T00:04:24.318Z,4.06
2018-09-17T00:05:30.526Z,4.06
2018-09-17T00:06:36.250Z,4.06
2018-09-17T00:07:42.458Z,4.06
2018-09-17T00:08:48.675Z,4.06
2018-09-17T00:09:54.885Z,4.06
2018-09-17T00:11:01.103Z,4.06
2018-09-17T00:12:07.808Z,4.06
2018-09-17T00:13:14.015Z,4.06
2018-09-17T00:14:19.736Z,4.06
2018-09-17T00:15:26.451Z,4.06
2018-09-17T00:16:32.658Z,4.06
2018-09-17T00:17:38.872Z,4.06
2018-09-17T00:18:44.589Z,4.06
2018-09-17T00:19:50.808Z,4.06
2018-09-17T00:20:57.019Z,4.06
2018-09-17T00:22:03.227Z,4.06
2018-09-17T00:23:09.933Z,4.06
2018-09-17T00:24:15.646Z,4.06
2018-09-17T00:25:22.357Z,4.06
2018-09-17T00:26:28.061Z,4.06
2018-09-17T00:27:34.782Z,4.06
2018-09-17T00:28:40.498Z,4.06
2018-09-17T00:29:47.281Z,4.06
2018-09-17T00:30:53.423Z,4.06
2018-09-17T00:31:59.114Z,4.06
2018-09-17T00:33:05.830Z,4.06
2018-09-17T00:34:11.536Z,4.06
2018-09-17T00:35:17.764Z,4.06
2018-09-17T00:36:23.963Z,4.06
2018-09-17T00:37:30.740Z,4.06
2018-09-17T00:38:36.373Z,4.06
2018-09-17T00:39:42.578Z,4.06
2018-09-17T00:40:48.792Z,4.06
2018-09-17T00:41:55.487Z,4.06
2018-09-17T00:43:01.205Z,4.06
2018-09-17T00:44:07.900Z,4.06
2018-09-17T00:45:13.629Z,4.06
2018-09-17T00:46:19.820Z,4.06
2018-09-17T00:47:26.033Z,4.06
2018-09-17T00:48:32.722Z,4.06
2018-09-17T00:49:38.445Z,4.06
2018-09-17T00:50:44.641Z,4.06
2018-09-17T00:51:51.342Z,4.06
2018-09-17T00:52:57.052Z,4.06
2018-09-17T00:54:03.762Z,4.06
2018-09-17T00:55:09.461Z,4.06
2018-09-17T00:56:15.660Z,4.06
2018-09-17T00:57:21.864Z,4.06
2018-09-17T00:58:28.064Z,4.06
2018-09-17T00:59:34.270Z,4.06
2018-09-17T01:00:40.981Z,4.06
2018-09-17T01:01:46.675Z,4.06
2018-09-17T01:02:52.890Z,4.06
2018-09-17T01:03:59.082Z,4.06
2018-09-17T01:05:05.279Z,4.06
2018-09-17T01:06:11.488Z,4.06
2018-09-17T01:07:17.687Z,4.06
2018-09-17T01:08:23.889Z,4.06
2018-09-17T01:09:30.596Z,4.06
2018-09-17T01:10:36.792Z,4.06
2018-09-17T01:11:42.493Z,4.06
2018-09-17T01:12:48.693Z,4.06
2018-09-17T01:13:54.891Z,4.06
2018-09-17T01:15:01.072Z,4.06
2018-09-17T01:16:08.276Z,4.06
2018-09-17T01:17:13.966Z,4.06
2018-09-17T01:18:19.665Z,4.06
2018-09-17T01:19:25.868Z,4.06
2018-09-17T01:20:32.073Z,4.06
2018-09-17T01:21:38.787Z,4.06
2018-09-17T01:22:44.448Z,4.06
2018-09-17T01:23:50.652Z,4.06
2018-09-17T01:24:56.840Z,4.06
2018-09-17T01:26:03.053Z,4.06
2018-09-17T01:27:09.731Z,4.06
2018-09-17T01:28:15.918Z,4.06
2018-09-17T01:29:21.626Z,4.06
2018-09-17T01:30:27.827Z,4.06
2018-09-17T01:31:34.094Z,4.06
2018-09-17T01:32:40.702Z,4.06
2018-09-17T01:33:46.393Z,4.06
2018-09-17T01:34:52.593Z,4.06
2018-09-17T01:35:58.795Z,4.06
2018-09-17T01:37:04.982Z,4.06
2018-09-17T01:38:11.661Z,4.06
2018-09-17T01:39:17.371Z,4.06
2018-09-17T01:40:23.550Z,4.06
2018-09-17T01:41:29.737Z,4.06
2018-09-17T01:42:35.941Z,4.06
2018-09-17T01:43:42.108Z,4.06
2018-09-17T01:44:48.297Z,4.06
2018-09-17T01:45:54.506Z,4.06
2018-09-17T01:47:00.684Z,4.06
2018-09-17T01:48:06.871Z,4.06
2018-09-17T01:49:13.557Z,4.06
2018-09-17T01:50:19.732Z,4.06
2018-09-17T01:51:25.430Z,4.06
2018-09-17T01:52:31.610Z,4.06
2018-09-17T01:53:38.281Z,4.06
2018-09-17T01:54:44.472Z,4.06
2018-09-17T01:55:50.678Z,4.06
2018-09-17T01:56:56.350Z,4.06
2018-09-17T01:58:02.538Z,4.06
2018-09-17T01:59:08.729Z,4.06
2018-09-17T02:00:14.908Z,4.06
2018-09-17T02:01:21.098Z,4.06
2018-09-17T02:02:27.287Z,4.06
2018-09-17T02:03:33.466Z,4.06
2018-09-17T02:04:39.659Z,4.06
2018-09-17T02:05:45.841Z,4.06
2018-09-17T02:06:52.031Z,4.06
2018-09-17T02:07:58.714Z,4.06
2018-09-17T02:09:04.425Z,4.06
2018-09-17T02:10:11.078Z,4.06
2018-09-17T02:11:16.775Z,4.06
2018-09-17T02:12:22.955Z,4.06
2018-09-17T02:13:29.132Z,4.06
2018-09-17T02:14:35.808Z,4.06
2018-09-17T02:15:41.487Z,4.06
2018-09-17T02:16:48.172Z,4.06
2018-09-17T02:17:54.341Z,4.06
2018-09-17T02:19:00.038Z,4.06
2018-09-17T02:20:06.742Z,4.06
2018-09-17T02:21:12.890Z,4.05
2018-09-17T02:22:18.597Z,4.06
2018-09-17T02:23:24.762Z,4.06
2018-09-17T02:24:30.954Z,4.06
2018-09-17T02:25:37.143Z,4.06
2018-09-17T02:26:44.316Z,4.06
2018-09-17T02:27:49.491Z,4.06
2018-09-17T02:28:56.167Z,4.05
2018-09-17T02:30:02.359Z,4.06
2018-09-17T02:31:08.526Z,4.06
2018-09-17T02:32:14.715Z,4.06
2018-09-17T02:33:20.880Z,4.06
2018-09-17T02:34:26.561Z,4.06
2018-09-17T02:35:32.752Z,4.05
2018-09-17T02:36:39.416Z,4.06
2018-09-17T02:37:45.587Z,4.06
2018-09-17T02:38:51.775Z,4.06
2018-09-17T02:39:57.460Z,4.06
2018-09-17T02:41:03.625Z,4.06
2018-09-17T02:42:09.823Z,4.06
2018-09-17T02:43:15.986Z,4.06
2018-09-17T02:44:22.663Z,4.06
2018-09-17T02:45:28.839Z,4.06
2018-09-17T02:46:34.527Z,4.06
2018-09-17T02:47:41.273Z,4.06
2018-09-17T02:48:46.871Z,4.06
2018-09-17T02:49:53.042Z,4.06
2018-09-17T02:50:59.732Z,4.05
2018-09-17T02:52:06.415Z,4.05
2018-09-17T02:53:12.072Z,4.05
2018-09-17T02:54:17.755Z,4.05
2018-09-17T02:55:23.953Z,4.05
2018-09-17T02:56:30.112Z,4.06
2018-09-17T02:57:36.283Z,4.05
2018-09-17T02:58:42.454Z,4.05
2018-09-17T02:59:49.135Z,4.05
2018-09-17T03:00:54.816Z,4.05
2018-09-17T03:02:00.991Z,4.06
2018-09-17T03:03:07.657Z,4.05
2018-09-17T03:04:13.826Z,4.05
2018-09-17T03:05:20.014Z,4.05
2018-09-17T03:06:25.695Z,4.05
2018-09-17T03:07:31.863Z,4.05
2018-09-17T03:08:38.533Z,4.05
2018-09-17T03:09:44.701Z,4.05
2018-09-17T03:10:50.876Z,4.05
2018-09-17T03:11:56.554Z,4.05
2018-09-17T03:13:02.728Z,4.05
2018-09-17T03:14:09.385Z,4.05
2018-09-17T03:15:15.547Z,4.05
2018-09-17T03:16:21.234Z,4.05
2018-09-17T03:17:27.720Z,4.05
2018-09-17T03:18:34.073Z,4.05
2018-09-17T03:19:39.751Z,4.05
2018-09-17T03:20:45.922Z,4.05
2018-09-17T03:21:52.591Z,4.05
2018-09-17T03:22:58.769Z,4.06
2018-09-17T03:24:04.439Z,4.06
2018-09-17T03:25:10.609Z,4.05
2018-09-17T03:26:16.781Z,4.05
2018-09-17T03:27:22.978Z,4.05
2018-09-17T03:28:29.126Z,4.05
2018-09-17T03:29:35.289Z,4.05
2018-09-17T03:30:41.471Z,4.05
2018-09-17T03:31:47.641Z,4.05
2018-09-17T03:32:53.810Z,4.05
2018-09-17T03:34:00.473Z,4.05
2018-09-17T03:35:06.140Z,4.05
2018-09-17T03:36:12.803Z,4.05
2018-09-17T03:37:18.480Z,4.05
2018-09-17T03:38:24.668Z,4.05
2018-09-17T03:39:31.329Z,4.05
2018-09-17T03:40:36.996Z,4.05
2018-09-17T03:41:43.662Z,4.05
2018-09-17T03:42:49.829Z,4.05
2018-09-17T03:43:55.495Z,4.05
2018-09-17T03:45:01.660Z,4.05
2018-09-17T03:46:08.359Z,4.05
2018-09-17T03:47:14.010Z,4.05
2018-09-17T03:48:20.164Z,4.05
2018-09-17T03:49:26.327Z,4.05
2018-09-17T03:50:32.983Z,4.05
2018-09-17T03:51:39.292Z,4.05
2018-09-17T03:52:45.333Z,4.05
2018-09-17T03:53:51.001Z,4.05
2018-09-17T03:54:57.189Z,4.06
2018-09-17T03:56:03.829Z,4.05
2018-09-17T03:57:09.499Z,4.05
2018-09-17T03:58:15.669Z,4.05
2018-09-17T03:59:21.830Z,4.05
2018-09-17T04:00:28.494Z,4.05
2018-09-17T04:01:34.658Z,4.05
2018-09-17T04:02:40.821Z,4.05
2018-09-17T04:03:46.491Z,4.05
2018-09-17T04:04:53.155Z,4.05
2018-09-17T04:05:58.819Z,4.05
2018-09-17T04:07:04.978Z,4.05
2018-09-17T04:08:11.156Z,4.05
2018-09-17T04:09:17.305Z,4.05
2018-09-17T04:10:24.472Z,4.05
2018-09-17T04:11:30.132Z,4.05
2018-09-17T04:12:35.819Z,4.05
2018-09-17T04:13:41.967Z,4.05
2018-09-17T04:14:48.130Z,4.05
2018-09-17T04:15:54.779Z,4.05
2018-09-17T04:17:00.457Z,4.05
2018-09-17T04:18:07.119Z,4.05
2018-09-17T04:19:13.788Z,4.05
2018-09-17T04:20:18.939Z,4.05
2018-09-17T04:21:25.109Z,4.05
2018-09-17T04:22:31.266Z,4.05
2018-09-17T04:23:37.931Z,4.05
2018-09-17T04:24:43.595Z,4.05
2018-09-17T04:25:50.239Z,4.05
2018-09-17T04:26:55.922Z,4.05
2018-09-17T04:28:02.073Z,4.05
2018-09-17T04:29:08.740Z,4.05
2018-09-17T04:30:14.397Z,4.05
2018-09-17T04:31:21.056Z,4.05
2018-09-17T04:32:26.732Z,4.05
2018-09-17T04:33:32.892Z,4.05
2018-09-17T04:34:39.041Z,4.05
2018-09-17T04:35:45.693Z,4.05
2018-09-17T04:36:51.361Z,4.05
2018-09-17T04:37:58.012Z,4.05
2018-09-17T04:39:04.187Z,4.05
2018-09-17T04:40:09.857Z,4.05
2018-09-17T04:41:15.993Z,4.05
2018-09-17T04:42:22.163Z,4.05
2018-09-17T04:43:28.324Z,4.05
2018-09-17T04:44:34.979Z,4.05
2018-09-17T04:45:40.637Z,4.05
2018-09-17T04:46:47.300Z,4.05
2018-09-17T04:47:53.450Z,4.05
2018-09-17T04:48:59.121Z,4.05
2018-09-17T04:50:05.261Z,4.05
2018-09-17T04:51:11.911Z,4.05
2018-09-17T04:52:18.085Z,4.05
2018-09-17T04:53:24.238Z,4.05
2018-09-17T04:54:29.909Z,4.05
2018-09-17T04:55:36.062Z,4.05
2018-09-17T04:56:42.718Z,4.05
2018-09-17T04:57:48.872Z,4.05
2018-09-17T04:58:55.033Z,4.05
2018-09-17T05:00:01.274Z,4.05
2018-09-17T05:01:07.353Z,4.05
2018-09-17T05:02:13.824Z,4.05
2018-09-17T05:03:19.659Z,4.05
2018-09-17T05:04:25.827Z,4.05
2018-09-17T05:05:31.971Z,4.05
2018-09-17T05:06:38.125Z,4.05
2018-09-17T05:07:44.276Z,4.05
2018-09-17T05:08:49.934Z,4.05
2018-09-17T05:09:56.089Z,4.05
2018-09-17T05:11:02.239Z,4.05
2018-09-17T05:12:08.896Z,4.05
2018-09-17T05:13:15.124Z,4.05
2018-09-17T05:14:21.284Z,4.05
2018-09-17T05:15:26.878Z,4.05
2018-09-17T05:16:33.031Z,4.05
2018-09-17T05:17:39.692Z,4.05
2018-09-17T05:18:45.846Z,4.05
2018-09-17T05:19:51.513Z,4.05
2018-09-17T05:20:57.665Z,4.05
2018-09-17T05:22:04.311Z,4.05
2018-09-17T05:23:10.460Z,4.05
2018-09-17T05:24:16.634Z,4.05
2018-09-17T05:25:22.795Z,4.05
2018-09-17T05:26:28.434Z,4.05
2018-09-17T05:27:35.097Z,4.05
2018-09-17T05:28:41.273Z,4.05
2018-09-17T05:29:47.425Z,4.05
2018-09-17T05:30:53.086Z,4.05
2018-09-17T05:31:59.250Z,4.05
2018-09-17T05:33:05.899Z,4.05
2018-09-17T05:34:12.061Z,4.05
2018-09-17T05:35:17.736Z,4.05
2018-09-17T05:36:23.886Z,4.05
2018-09-17T05:37:30.048Z,4.05
2018-09-17T05:38:36.711Z,4.05
2018-09-17T05:39:42.375Z,4.05
2018-09-17T05:40:48.545Z,4.05
2018-09-17T05:41:55.271Z,4.05
2018-09-17T05:43:00.880Z,4.05
2018-09-17T05:44:07.529Z,4.05
2018-09-17T05:45:13.700Z,4.05
2018-09-17T05:46:19.427Z,4.05
2018-09-17T05:47:26.026Z,4.05
2018-09-17T05:48:32.199Z,4.05
2018-09-17T05:49:37.876Z,4.05
2018-09-17T05:50:44.529Z,4.05
2018-09-17T05:51:50.690Z,4.05
2018-09-17T05:52:56.884Z,4.05
2018-09-17T05:54:02.539Z,4.05
2018-09-17T05:55:09.273Z,4.05
2018-09-17T05:56:15.377Z,4.05
2018-09-17T05:57:21.557Z,4.05
2018-09-17T05:58:27.241Z,4.05
2018-09-17T05:59:33.961Z,4.05
2018-09-17T06:00:40.072Z,4.05
2018-09-17T06:01:45.749Z,4.05
2018-09-17T06:02:52.883Z,4.05
2018-09-17T06:03:58.098Z,4.05
2018-09-17T06:05:04.269Z,4.05
2018-09-17T06:06:10.967Z,4.05
2018-09-17T06:07:17.140Z,4.05
2018-09-17T06:08:23.317Z,4.05
2018-09-17T06:09:29.007Z,4.06
2018-09-17T06:10:35.332Z,4.05
2018-09-17T06:11:41.393Z,4.05
2018-09-17T06:12:47.746Z,4.05
2018-09-17T06:13:54.240Z,4.05
2018-09-17T06:15:00.423Z,4.05
2018-09-17T06:16:06.126Z,4.05
2018-09-17T06:17:12.351Z,4.05
2018-09-17T06:18:18.984Z,4.05
2018-09-17T06:19:24.689Z,4.06
2018-09-17T06:20:30.882Z,4.05
2018-09-17T06:21:37.088Z,4.05
2018-09-17T06:22:43.807Z,4.05
2018-09-17T06:23:49.959Z,4.05
2018-09-17T06:24:56.160Z,4.06
2018-09-17T06:26:02.351Z,4.06
2018-09-17T06:27:08.063Z,4.06
2018-09-17T06:28:14.745Z,4.06
2018-09-17T06:29:20.454Z,4.06
2018-09-17T06:30:26.675Z,4.05
2018-09-17T06:31:32.897Z,4.06
2018-09-17T06:32:39.065Z,4.06
2018-09-17T06:33:45.772Z,4.06
2018-09-17T06:34:51.979Z,4.06
2018-09-17T06:35:58.177Z,4.06
2018-09-17T06:37:04.104Z,4.06
2018-09-17T06:38:10.129Z,4.06
2018-09-17T06:39:16.326Z,4.06
2018-09-17T06:40:23.026Z,4.06
2018-09-17T06:41:28.777Z,4.05
2018-09-17T06:42:35.160Z,4.06
2018-09-17T06:43:41.279Z,4.06
2018-09-17T06:44:47.454Z,4.06
2018-09-17T06:45:54.114Z,4.06
2018-09-17T06:47:00.338Z,4.06
2018-09-17T06:48:06.082Z,4.06
2018-09-17T06:49:12.300Z,4.06
2018-09-17T06:50:19.009Z,4.06
2018-09-17T06:51:24.807Z,4.06
2018-09-17T06:52:31.486Z,4.06
2018-09-17T06:53:37.217Z,4.06
2018-09-17T06:54:43.437Z,4.06
2018-09-17T06:55:49.678Z,4.06
2018-09-17T06:56:55.917Z,4.06
2018-09-17T06:58:02.149Z,4.06
2018-09-17T06:59:08.885Z,4.06
2018-09-17T07:00:14.633Z,4.06
2018-09-17T07:01:21.348Z,4.06
2018-09-17T07:02:27.141Z,4.06
2018-09-17T07:03:33.353Z,4.06
2018-09-17T07:04:40.094Z,4.06
2018-09-17T07:05:45.849Z,4.06
2018-09-17T07:06:52.113Z,4.06
2018-09-17T07:07:58.341Z,4.06
2018-09-17T07:09:04.596Z,4.06
2018-09-17T07:10:10.835Z,4.06
2018-09-17T07:11:17.098Z,4.06
2018-09-17T07:12:23.352Z,4.06
2018-09-17T07:13:29.598Z,4.06
2018-09-17T07:14:36.332Z,4.06
2018-09-17T07:15:42.592Z,4.06
2018-09-17T07:16:48.858Z,4.06
2018-09-17T07:17:55.146Z,4.06
2018-09-17T07:19:00.874Z,4.06
2018-09-17T07:20:07.642Z,4.06
2018-09-17T07:21:13.881Z,4.06
2018-09-17T07:22:19.663Z,4.06
2018-09-17T07:23:25.928Z,4.06
2018-09-17T07:24:32.196Z,4.06
2018-09-17T07:25:38.944Z,4.06
2018-09-17T07:26:44.715Z,4.06
2018-09-17T07:27:50.992Z,4.06
2018-09-17T07:28:57.771Z,4.06
2018-09-17T07:30:04.047Z,4.06
2018-09-17T07:31:10.343Z,4.06
2018-09-17T07:32:16.594Z,4.06
2018-09-17T07:33:22.383Z,4.06
2018-09-17T07:34:28.652Z,4.06
2018-09-17T07:35:35.406Z,4.06
2018-09-17T07:36:41.777Z,4.06
2018-09-17T07:37:47.984Z,4.07
2018-09-17T07:38:53.773Z,4.07
2018-09-17T07:40:00.057Z,4.08
2018-09-17T07:41:06.335Z,4.07
2018-09-17T07:42:12.616Z,4.07
2018-09-17T07:43:19.412Z,4.07
2018-09-17T07:44:25.202Z,4.07
2018-09-17T07:45:31.479Z,4.07
2018-09-17T07:46:38.276Z,4.07
2018-09-17T07:47:44.119Z,4.07
2018-09-17T07:48:50.855Z,4.07
2018-09-17T07:49:57.159Z,4.07
2018-09-17T07:51:03.448Z,4.08
2018-09-17T07:52:09.739Z,4.09
2018-09-17T07:53:15.602Z,4.10
2018-09-17T07:54:21.875Z,4.09
2018-09-17T07:55:28.644Z,4.10
2018-09-17T07:56:34.958Z,4.10
2018-09-17T07:57:40.757Z,4.10
2018-09-17T07:58:47.582Z,4.10
2018-09-17T07:59:53.365Z,4.10
2018-09-17T08:01:00.170Z,4.10
2018-09-17T08:02:06.488Z,4.10
2018-09-17T08:03:12.362Z,4.10
2018-09-17T08:04:18.618Z,4.10
2018-09-17T08:05:24.931Z,4.10
2018-09-17T08:06:31.739Z,4.11
2018-09-17T08:07:38.062Z,4.11
2018-09-17T08:08:43.902Z,4.11
2018-09-17T08:09:50.187Z,4.11
2018-09-17T08:10:57.008Z,4.11
2018-09-17T08:12:02.846Z,4.12
2018-09-17T08:13:09.278Z,4.10
2018-09-17T08:14:15.492Z,4.09
2018-09-17T08:15:22.311Z,4.09
2018-09-17T08:16:28.631Z,4.09
2018-09-17T08:17:34.481Z,4.09
2018-09-17T08:18:40.839Z,4.09
2018-09-17T08:19:48.705Z,4.09
2018-09-17T08:20:53.516Z,4.09
2018-09-17T08:21:59.862Z,4.09
2018-09-17T08:23:06.207Z,4.09
2018-09-17T08:24:13.073Z,4.09
2018-09-17T08:25:18.936Z,4.09
2018-09-17T08:26:25.293Z,4.09
2018-09-17T08:27:31.673Z,4.09
2018-09-17T08:28:38.090Z,4.09
2018-09-17T08:29:44.387Z,4.09
2018-09-17T08:30:51.272Z,4.09
2018-09-17T08:31:57.335Z,4.09
2018-09-17T08:33:04.019Z,4.09
2018-09-17T08:34:09.908Z,4.09
2018-09-17T08:35:16.774Z,4.09
2018-09-17T08:36:22.667Z,4.09
2018-09-17T08:37:29.544Z,4.09
2018-09-17T08:38:35.438Z,4.09
2018-09-17T08:39:41.848Z,4.09
2018-09-17T08:40:48.277Z,4.09
2018-09-17T08:41:55.124Z,4.09
2018-09-17T08:43:02.535Z,4.09
2018-09-17T08:44:07.463Z,4.09
2018-09-17T08:45:13.866Z,4.09
2018-09-17T08:46:20.773Z,4.09
2018-09-17T08:47:27.273Z,4.09
2018-09-17T08:48:33.615Z,4.09
2018-09-17T08:49:39.570Z,4.09
2018-09-17T08:50:45.964Z,4.09
2018-09-17T08:51:52.887Z,4.09
2018-09-17T08:52:58.862Z,4.09
2018-09-17T08:54:05.270Z,4.09
2018-09-17T08:55:11.699Z,4.09
2018-09-17T08:56:18.143Z,4.09
2018-09-17T08:57:24.586Z,4.09
2018-09-17T08:58:31.031Z,4.09
2018-09-17T08:59:37.495Z,4.09
2018-09-17T09:00:44.422Z,4.09
2018-09-17T09:01:50.383Z,4.09
2018-09-17T09:02:56.861Z,4.09
2018-09-17T09:04:03.376Z,4.09
2018-09-17T09:05:09.839Z,4.09
2018-09-17T09:06:16.246Z,4.09
2018-09-17T09:07:22.709Z,4.09
2018-09-17T09:08:29.278Z,4.09
2018-09-17T09:09:35.697Z,4.09
2018-09-17T09:10:42.137Z,4.09
2018-09-17T09:11:48.616Z,4.09
2018-09-17T09:12:55.103Z,4.09
2018-09-17T09:14:01.579Z,4.09
2018-09-17T09:15:08.069Z,4.09
2018-09-17T09:16:15.043Z,4.09
2018-09-17T09:17:21.558Z,4.09
2018-09-17T09:18:27.543Z,4.09
2018-09-17T09:19:34.073Z,4.09
2018-09-17T09:20:41.049Z,4.09
2018-09-17T09:21:47.043Z,4.09
2018-09-17T09:22:53.548Z,4.09
2018-09-17T09:24:00.541Z,4.09
2018-09-17T09:25:06.556Z,4.09
2018-09-17T09:26:13.060Z,4.09
2018-09-17T09:27:19.562Z,4.09
2018-09-17T09:28:26.084Z,4.09
2018-09-17T09:29:32.583Z,4.09
2018-09-17T09:30:39.095Z,4.09
2018-09-17T09:31:45.602Z,4.09
2018-09-17T09:32:52.110Z,4.09
2018-09-17T09:33:59.134Z,4.09
2018-09-17T09:35:05.643Z,4.09
2018-09-17T09:36:12.154Z,4.09
2018-09-17T09:37:18.185Z,4.09
2018-09-17T09:38:24.723Z,4.09
2018-09-17T09:39:31.729Z,4.10
2018-09-17T09:40:38.248Z,4.09
2018-09-17T09:41:44.275Z,4.09
2018-09-17T09:42:51.288Z,4.10
2018-09-17T09:43:57.813Z,4.09
2018-09-17T09:45:04.351Z,4.09
2018-09-17T09:46:10.392Z,4.09
2018-09-17T09:47:16.923Z,4.09
2018-09-17T09:48:23.448Z,4.09
2018-09-17T09:49:30.488Z,4.09
2018-09-17T09:50:36.534Z,4.10
2018-09-17T09:51:43.081Z,4.09
2018-09-17T09:52:49.669Z,4.09
2018-09-17T09:53:56.159Z,4.10
2018-09-17T09:55:02.704Z,4.10
2018-09-17T09:56:09.757Z,4.10
2018-09-17T09:57:15.807Z,4.10
2018-09-17T09:58:22.355Z,4.09
2018-09-17T09:59:28.923Z,4.10
2018-09-17T10:00:35.974Z,4.09
2018-09-17T10:01:42.028Z,4.10
2018-09-17T10:02:49.075Z,4.09
2018-09-17T10:03:55.147Z,4.10
2018-09-17T10:05:01.711Z,4.10
2018-09-17T10:06:08.288Z,4.10
2018-09-17T10:07:14.847Z,4.10
2018-09-17T10:08:21.430Z,4.10
2018-09-17T10:09:28.012Z,4.09
2018-09-17T10:10:34.591Z,4.10
2018-09-17T10:11:41.748Z,4.10
2018-09-17T10:12:48.258Z,4.10
2018-09-17T10:13:54.347Z,4.09
2018-09-17T10:15:00.946Z,4.10
2018-09-17T10:16:07.544Z,4.10
2018-09-17T10:17:14.136Z,4.10
2018-09-17T10:18:20.722Z,4.10
2018-09-17T10:19:28.353Z,4.10
2018-09-17T10:20:33.923Z,4.10
2018-09-17T10:21:41.035Z,4.10
2018-09-17T10:22:47.139Z,4.10
2018-09-17T10:23:54.273Z,4.10
2018-09-17T10:25:00.374Z,4.10
2018-09-17T10:26:06.990Z,4.10
2018-09-17T10:27:14.110Z,4.10
2018-09-17T10:28:20.229Z,4.10
2018-09-17T10:29:27.357Z,4.10
2018-09-17T10:30:33.977Z,4.10
2018-09-17T10:31:40.132Z,4.10
2018-09-17T10:32:46.748Z,4.10
2018-09-17T10:33:53.867Z,4.10
2018-09-17T10:35:00.016Z,4.10
2018-09-17T10:36:07.149Z,4.10
2018-09-17T10:37:13.798Z,4.10
2018-09-17T10:38:19.912Z,4.10
2018-09-17T10:39:26.622Z,4.10
2018-09-17T10:40:33.208Z,4.10
2018-09-17T10:41:39.855Z,4.10
2018-09-17T10:42:46.704Z,4.10
2018-09-17T10:43:53.638Z,4.10
2018-09-17T10:45:00.298Z,4.10
2018-09-17T10:46:06.452Z,4.10
2018-09-17T10:47:13.124Z,4.10
2018-09-17T10:48:19.777Z,4.10
2018-09-17T10:49:26.442Z,4.10
2018-09-17T10:50:33.117Z,4.10
2018-09-17T10:51:40.277Z,4.10
2018-09-17T10:52:46.963Z,4.10
2018-09-17T10:53:53.274Z,4.10
2018-09-17T10:54:59.832Z,4.10
2018-09-17T10:56:06.533Z,4.10
2018-09-17T10:57:13.236Z,4.10
2018-09-17T10:58:19.900Z,4.10
2018-09-17T10:59:26.589Z,4.10
2018-09-17T11:00:33.274Z,4.10
2018-09-17T11:01:39.971Z,4.10
2018-09-17T11:02:46.675Z,4.10
2018-09-17T11:03:53.362Z,4.10
2018-09-17T11:05:00.566Z,4.10
2018-09-17T11:06:06.773Z,4.10
2018-09-17T11:07:13.993Z,4.10
2018-09-17T11:08:21.379Z,4.10
2018-09-17T11:09:27.402Z,4.10
2018-09-17T11:10:34.130Z,4.10
2018-09-17T11:11:40.350Z,4.10
2018-09-17T11:12:47.578Z,4.10
2018-09-17T11:13:54.311Z,4.10
2018-09-17T11:15:00.532Z,4.10
2018-09-17T11:16:07.249Z,4.10
2018-09-17T11:17:14.025Z,4.10
2018-09-17T11:18:20.732Z,4.10
2018-09-17T11:19:27.465Z,4.10
2018-09-17T11:20:34.732Z,4.10
2018-09-17T11:21:41.018Z,4.10
2018-09-17T11:22:47.827Z,4.10
2018-09-17T11:23:55.266Z,4.10
2018-09-17T11:25:02.201Z,4.10
2018-09-17T11:26:09.046Z,4.09
2018-09-17T11:27:16.023Z,4.09
2018-09-17T11:28:22.533Z,4.09
2018-09-17T11:29:29.566Z,4.09
2018-09-17T11:30:36.622Z,4.09
2018-09-17T11:31:43.687Z,4.09
2018-09-17T11:32:50.807Z,4.09
2018-09-17T11:33:57.925Z,4.09
2018-09-17T11:35:05.053Z,4.09
2018-09-17T11:36:12.245Z,4.09
2018-09-17T11:37:19.416Z,4.09
2018-09-17T11:38:26.643Z,4.09
2018-09-17T11:39:33.872Z,4.09
2018-09-17T11:40:41.121Z,4.09
2018-09-17T11:41:48.398Z,4.09
2018-09-17T11:42:55.676Z,4.09
2018-09-17T11:44:02.969Z,4.09
2018-09-17T11:45:10.268Z,4.09
2018-09-17T11:46:17.608Z,4.09
2018-09-17T11:47:24.959Z,4.09
2018-09-17T11:48:32.353Z,4.09
2018-09-17T11:49:40.192Z,4.09
2018-09-17T11:50:47.071Z,4.09
2018-09-17T11:51:54.920Z,4.09
2018-09-17T11:53:02.344Z,4.09
2018-09-17T11:54:09.759Z,4.09
2018-09-17T11:55:17.140Z,4.09
2018-09-17T11:56:24.070Z,4.09
2018-09-17T11:57:31.486Z,4.09
2018-09-17T11:58:38.894Z,4.09
2018-09-17T11:59:46.811Z,4.09
2018-09-17T12:00:53.758Z,4.09
2018-09-17T12:02:01.209Z,4.09
2018-09-17T12:03:08.652Z,4.08
2018-09-17T12:04:16.119Z,4.09
2018-09-17T12:05:24.065Z,4.09
2018-09-17T12:06:31.029Z,4.09
2018-09-17T12:07:38.459Z,4.09
2018-09-17T12:08:45.926Z,4.09
2018-09-17T12:09:53.376Z,4.09
2018-09-17T12:11:00.829Z,4.09
2018-09-17T12:12:08.313Z,4.09
2018-09-17T12:13:15.785Z,4.09
2018-09-17T12:14:23.374Z,4.09
2018-09-17T12:15:30.770Z,4.09
2018-09-17T12:16:38.324Z,4.09
2018-09-17T12:17:45.764Z,4.09
2018-09-17T12:18:53.302Z,4.08
2018-09-17T12:20:00.782Z,4.08
2018-09-17T12:21:08.265Z,4.08
2018-09-17T12:22:15.716Z,4.08
2018-09-17T12:23:23.280Z,4.08
2018-09-17T12:24:30.943Z,4.09
2018-09-17T12:25:38.551Z,4.08
2018-09-17T12:26:45.973Z,4.08
2018-09-17T12:27:53.406Z,4.08
2018-09-17T12:29:00.326Z,4.08
2018-09-17T12:30:07.723Z,4.09
2018-09-17T12:31:15.628Z,4.08
2018-09-17T12:32:23.034Z,4.09
2018-09-17T12:33:29.989Z,4.08
2018-09-17T12:34:37.344Z,4.08
2018-09-17T12:35:45.222Z,4.08
2018-09-17T12:36:52.638Z,4.08
2018-09-17T12:38:00.036Z,4.08
2018-09-17T12:39:07.453Z,4.08
2018-09-17T12:40:14.832Z,4.08
2018-09-17T12:41:21.725Z,4.08
2018-09-17T12:42:29.120Z,4.08
2018-09-17T12:43:37.013Z,4.08
2018-09-17T12:44:43.917Z,4.08
2018-09-17T12:45:51.292Z,4.08
2018-09-17T12:46:59.275Z,4.08
2018-09-17T12:48:06.070Z,4.08
2018-09-17T12:49:13.460Z,4.08
2018-09-17T12:50:20.862Z,4.08
2018-09-17T12:51:28.250Z,4.08
2018-09-17T12:52:35.640Z,4.08
2018-09-17T12:53:43.554Z,4.08
2018-09-17T12:54:50.464Z,4.08
2018-09-17T12:55:57.854Z,4.08
2018-09-17T12:57:05.267Z,4.08
2018-09-17T12:58:12.694Z,4.08
2018-09-17T12:59:20.072Z,4.08
2018-09-17T13:00:27.509Z,4.08
2018-09-17T13:01:34.876Z,4.08
2018-09-17T13:02:42.749Z,4.08
2018-09-17T13:03:49.654Z,4.08
2018-09-17T13:04:57.053Z,4.08
2018-09-17T13:06:04.433Z,4.08
2018-09-17T13:07:12.321Z,4.08
2018-09-17T13:08:19.687Z,4.08
2018-09-17T13:09:27.044Z,4.08
2018-09-17T13:10:33.924Z,4.08
2018-09-17T13:11:41.256Z,4.08
2018-09-17T13:12:48.583Z,4.08
2018-09-17T13:13:56.393Z,4.08
2018-09-17T13:15:03.206Z,4.08
2018-09-17T13:16:10.975Z,4.08
2018-09-17T13:17:17.758Z,4.08
2018-09-17T13:18:25.045Z,4.08
2018-09-17T13:19:32.327Z,4.08
2018-09-17T13:20:39.597Z,4.08
2018-09-17T13:21:46.873Z,4.08
2018-09-17T13:22:54.643Z,4.08
2018-09-17T13:24:01.435Z,4.08
2018-09-17T13:25:09.228Z,4.08
2018-09-17T13:26:16.046Z,4.08
2018-09-17T13:27:23.843Z,4.08
2018-09-17T13:28:30.652Z,4.08
2018-09-17T13:29:38.483Z,4.08
2018-09-17T13:30:45.311Z,4.08
2018-09-17T13:31:53.210Z,4.08
2018-09-17T13:32:59.961Z,4.08
2018-09-17T13:34:07.313Z,4.08
2018-09-17T13:35:14.682Z,4.08
2018-09-17T13:36:22.505Z,4.08
2018-09-17T13:37:29.388Z,4.08
2018-09-17T13:38:37.305Z,4.08
2018-09-17T13:39:44.132Z,4.08
2018-09-17T13:40:52.024Z,4.08
2018-09-17T13:41:58.948Z,4.08
2018-09-17T13:43:06.350Z,4.08
2018-09-17T13:44:13.792Z,4.08
2018-09-17T13:45:21.171Z,4.08
2018-09-17T13:47:36.062Z,4.08
2018-09-17T13:48:43.499Z,4.08
2018-09-17T13:49:51.425Z,4.08
2018-09-17T13:50:58.387Z,4.08
2018-09-17T13:52:05.846Z,4.08
2018-09-17T13:53:13.442Z,4.08
2018-09-17T13:54:21.287Z,4.08
2018-09-17T13:55:28.784Z,4.08
2018-09-17T13:56:35.716Z,4.08
2018-09-17T13:57:43.298Z,4.08
2018-09-17T13:58:52.090Z,4.08
2018-09-17T13:59:58.126Z,4.08
2018-09-17T14:01:05.604Z,4.08
2018-09-17T14:02:13.084Z,4.08
2018-09-17T14:03:20.565Z,4.08
2018-09-17T14:04:28.205Z,4.08
2018-09-17T14:05:36.044Z,4.08
2018-09-17T14:06:43.565Z,4.08
2018-09-17T14:07:51.062Z,4.08
2018-09-17T14:08:58.591Z,4.08
2018-09-17T14:10:06.150Z,4.08
2018-09-17T14:11:13.130Z,4.08
2018-09-17T14:12:20.644Z,4.08
2018-09-17T14:13:28.285Z,4.08
2018-09-17T14:14:35.690Z,4.08
2018-09-17T14:15:43.200Z,4.08
2018-09-17T14:16:50.747Z,4.08
2018-09-17T14:17:58.260Z,4.08
2018-09-17T14:19:06.284Z,4.08
2018-09-17T14:20:13.836Z,4.08
2018-09-17T14:21:20.875Z,4.08
2018-09-17T14:22:28.924Z,4.08
2018-09-17T14:23:35.995Z,4.08
2018-09-17T14:24:43.554Z,4.08
2018-09-17T14:25:51.189Z,4.08
2018-09-17T14:26:59.139Z,4.08
2018-09-17T14:28:06.196Z,4.08
2018-09-17T14:29:13.755Z,4.08
2018-09-17T14:30:21.285Z,4.08
2018-09-17T14:31:28.841Z,4.08
2018-09-17T14:32:36.573Z,4.08
2018-09-17T14:33:43.885Z,4.08
2018-09-17T14:34:51.388Z,4.08
2018-09-17T14:35:58.930Z,4.08
2018-09-17T14:37:06.910Z,4.08
2018-09-17T14:38:14.376Z,4.08
2018-09-17T14:39:21.383Z,4.08
2018-09-17T14:40:28.850Z,4.08
2018-09-17T14:41:36.850Z,4.08
2018-09-17T14:42:43.837Z,4.08
2018-09-17T14:43:51.359Z,4.08
2018-09-17T14:44:59.277Z,4.08
2018-09-17T14:46:06.267Z,4.08
2018-09-17T14:47:13.673Z,4.08